Unionville, VA (22567)

6:21 PM EST on February 27, 2015 (GMT -0500)
Fox Creek Farm (KS4Q) | Change Station
CLOSE
Current Station
Personal Weather Station
Location: Unionville, VA
Elevation: 550 ft
Nearby Weather Stations

Elev 550 ft 38.26 °N, 77.96 °W | Updated 4 minutes ago

Overcast
Overcast
29.8 °F
Feels Like 25 °F
N
5.0
Wind Variable Wind from NE
Gusts 5.0 mph

Today
High -- | Low -- °F
--% Chance of Precip.
Yesterday
High -- | Low -- °F
Precip. -- in
6:46 AM 6:02 PM
Waxing Gibbous, 72% visible
Pressure 30.49 in
Visibility 10.0 miles
Clouds Scattered Clouds 6000 ft
Overcast 7000 ft
Windchill 25 °F
Dew Point 10 °F
Humidity 44%
Rainfall 0.00 in
Snow Depth Not available.
UV 0 out of 12
Pollen .40 out of 12
Air Quality Not available.
Flu Activity Not available.
METAR KOMH 272255Z AUTO 00000KT 10SM SCT060 OVC070 00/M10 A3049 RMK AO2

More Conditions Fewer Conditions

Pressure 30.49 in
Visibility 10.0 miles
Clouds Scattered Clouds 6000 ft
Overcast 7000 ft
Windchill 25 °F
Dew Point 10 °F
Humidity 44%
Rainfall 0.00 in
Snow Depth Not available.
UV 0 out of 12
Pollen .40 out of 12
Air Quality Not available.
Flu Activity Not available.
METAR KOMH 272255Z AUTO 00000KT 10SM SCT060 OVC070 00/M10 A3049 RMK AO2

More Conditions Fewer Conditions

10-Day Weather Forecast

Almanac

Astronomy

Feb. 27, 2015 Rise Set
Actual Time
Civil Twilight
Nautical Twilight
Astronomical Twilight
Moon
Length of Visible Light
Length of Day
Tomorrow will be .
, % of the Moon is Illuminated

Today's Extremes

State Highs State Lows

Community

WunderPhotos

Upload Photos

1,800,876 photos uploaded!

WunderBlogs® & News

Nearby

Air Quality

  Air Quality AQ Index Pollutant
Not available.

Snow Depth

Station Depth Elevation

Earthquake Activity

City Distance Mag. Time & Date
Minimum magnitude displayed is 2.5.

Coastal Water Temperatures

Place Temperature

Nearby Weather Stations